Time;durP1;ratioP1;P1;durP2;ratioP2;P2;SDS_P1;SDS_P2;PMS_P1;PMS_P2;Temp;Humidity;BMP_temperature;BMP_pressure;BME280_temperature;BME280_humidity;BME280_pressure;Samples;Min_cycle;Max_cycle;Signal;HPM_P1;HPM_P2
2023/12/25 00:01:59;;;;;;;5.50;1.90;;;;;;;7.94;86.81;98231.96;109141;1255;71458;-69
2023/12/25 00:04:25;;;;;;;6.00;2.60;;;;;;;7.92;86.74;98233.89;108916;1256;138248;-69
2023/12/25 00:06:52;;;;;;;11.40;3.80;;;;;;;7.91;86.79;98234.07;109160;1255;60078;-68
2023/12/25 00:09:19;;;;;;;7.80;4.80;;;;;;;7.90;86.84;98237.58;109145;1256;75424;-69
2023/12/25 00:11:45;;;;;;;8.30;3.20;;;;;;;7.90;86.84;98239.84;109013;1255;138572;-68
2023/12/25 00:14:12;;;;;;;5.50;2.30;;;;;;;7.90;86.73;98242.80;109086;1256;73443;-68
2023/12/25 00:16:40;;;;;;;6.50;2.80;;;;;;;7.90;86.69;98247.70;107302;1256;139016;-68
2023/12/25 00:19:07;;;;;;;7.60;3.00;;;;;;;7.90;86.63;98242.98;108981;1254;59680;-69
2023/12/25 00:21:36;;;;;;;4.50;2.10;;;;;;;7.89;86.51;98257.83;109000;1255;138927;-68
2023/12/25 00:24:04;;;;;;;6.80;3.10;;;;;;;7.88;86.42;98266.22;109051;1256;66447;-68
2023/12/25 00:26:30;;;;;;;6.80;2.40;;;;;;;7.90;86.36;98267.95;108995;1255;71468;-68
2023/12/25 00:28:57;;;;;;;8.10;3.30;;;;;;;7.90;86.25;98274.92;108902;1254;139629;-68
2023/12/25 00:31:24;;;;;;;7.70;2.90;;;;;;;7.90;86.08;98276.34;109105;1255;60420;-69
2023/12/25 00:33:50;;;;;;;5.40;2.20;;;;;;;7.89;86.03;98271.63;108909;1256;138800;-69
2023/12/25 00:36:17;;;;;;;12.00;5.50;;;;;;;7.89;85.83;98270.39;109201;1255;66300;-69
2023/12/25 00:38:44;;;;;;;15.70;5.30;;;;;;;7.89;85.85;98279.48;109086;1256;78035;-68
2023/12/25 00:41:10;;;;;;;7.00;2.60;;;;;;;7.90;85.85;98282.44;108883;1255;143137;-69
2023/12/25 00:43:37;;;;;;;6.70;2.20;;;;;;;7.88;85.69;98276.70;109092;1255;58971;-69
2023/12/25 00:46:05;;;;;;;7.50;2.90;;;;;;;7.83;85.50;98282.46;108983;1255;138873;-69
2023/12/25 00:48:31;;;;;;;11.50;3.70;;;;;;;7.75;85.33;98283.36;109152;1255;66640;-67
2023/12/25 00:50:58;;;;;;;10.70;4.80;;;;;;;7.70;85.37;98293.69;109164;1254;71677;-69
2023/12/25 00:53:24;;;;;;;8.70;3.20;;;;;;;7.68;85.43;98294.73;108999;1254;139468;-68
2023/12/25 00:55:51;;;;;;;9.90;3.90;;;;;;;7.70;85.44;98302.23;109006;1255;60244;-69
2023/12/25 00:58:19;;;;;;;5.50;2.10;;;;;;;7.73;85.45;98307.81;109016;1256;139241;-69
2023/12/25 01:00:46;;;;;;;8.70;3.20;;;;;;;7.79;85.48;98306.75;108986;1255;65924;-69
2023/12/25 01:03:12;;;;;;;11.50;3.40;;;;;;;7.82;85.42;98308.83;109143;1254;71643;-69
2023/12/25 01:05:39;;;;;;;6.90;4.00;;;;;;;7.84;85.27;98314.94;108955;1254;138497;-64
2023/12/25 01:08:06;;;;;;;11.30;4.60;;;;;;;7.84;85.12;98316.16;109102;1255;60034;-64
2023/12/25 01:10:32;;;;;;;8.70;3.40;;;;;;;7.84;84.93;98325.94;105154;1258;139680;-63
2023/12/25 01:12:59;;;;;;;11.00;4.90;;;;;;;7.83;84.95;98330.83;104901;1256;67055;-64
2023/12/25 01:15:26;;;;;;;5.50;2.00;;;;;;;7.80;84.76;98331.55;104829;1256;138681;-65
2023/12/25 01:17:52;;;;;;;8.90;2.30;;;;;;;7.68;84.53;98337.50;104999;1256;61376;-63
2023/12/25 01:20:19;;;;;;;7.60;2.20;;;;;;;7.55;84.60;98343.81;104881;1254;61433;-63
2023/12/25 01:22:45;;;;;;;5.90;1.80;;;;;;;7.48;84.72;98349.58;104716;1256;138368;-64
2023/12/25 01:25:12;;;;;;;10.20;2.90;;;;;;;7.40;84.87;98355.70;104956;1255;67522;-62
2023/12/25 01:27:41;;;;;;;10.70;5.20;;;;;;;7.35;85.13;98361.81;104696;1256;139482;-64
2023/12/25 01:30:09;;;;;;;7.00;2.50;;;;;;;7.33;85.39;98366.69;104846;1259;61237;-64
2023/12/25 01:32:36;;;;;;;8.20;2.80;;;;;;;7.34;85.60;98373.85;109120;1255;59426;-62
2023/12/25 01:35:04;;;;;;;7.90;1.90;;;;;;;7.38;85.88;98380.30;106719;1258;138693;-64
2023/12/25 01:37:31;;;;;;;7.50;4.20;;;;;;;7.39;85.82;98384.48;109065;1255;67671;-63
2023/12/25 01:39:57;;;;;;;5.40;2.30;;;;;;;7.39;85.94;98386.77;108998;1255;139288;-70
2023/12/25 01:42:24;;;;;;;7.60;2.20;;;;;;;7.39;85.94;98385.02;109121;1255;60717;-69
2023/12/25 01:44:51;;;;;;;5.00;2.00;;;;;;;7.40;85.89;98385.88;109094;1257;59712;-70
2023/12/25 01:47:18;;;;;;;4.30;1.70;;;;;;;7.38;85.79;98385.17;108975;1255;138388;-69
2023/12/25 01:49:45;;;;;;;10.40;2.10;;;;;;;7.36;85.68;98389.55;109102;1255;66275;-69
2023/12/25 01:52:11;;;;;;;5.10;1.60;;;;;;;7.35;85.71;98395.83;105812;1258;139194;-69
2023/12/25 01:54:38;;;;;;;5.40;2.00;;;;;;;7.37;85.72;98401.41;104866;1258;61174;-69
2023/12/25 01:57:05;;;;;;;8.20;2.50;;;;;;;7.36;85.57;98401.91;104855;1256;61410;-69
2023/12/25 01:59:32;;;;;;;8.40;2.00;;;;;;;7.32;85.40;98401.77;109006;1255;139003;-68
2023/12/25 02:01:59;;;;;;;7.40;1.80;;;;;;;7.26;85.33;98408.56;108924;1256;64876;-68
2023/12/25 02:04:26;;;;;;;6.10;1.60;;;;;;;7.24;85.59;98413.45;107107;1256;139411;-68
2023/12/25 02:06:53;;;;;;;5.50;1.70;;;;;;;7.27;85.83;98417.63;104947;1258;61278;-68
2023/12/25 02:09:19;;;;;;;4.70;1.80;;;;;;;7.32;85.82;98411.17;105135;1256;61400;-69
2023/12/25 02:11:46;;;;;;;8.00;2.10;;;;;;;7.37;85.96;98415.53;104974;1257;138204;-69
2023/12/25 02:14:13;;;;;;;6.90;2.20;;;;;;;7.40;85.83;98419.55;104945;1257;64052;-63
2023/12/25 02:16:40;;;;;;;11.80;2.60;;;;;;;7.40;85.66;98420.26;104854;1258;138534;-63
2023/12/25 02:19:22;;;;;;;9.70;2.50;;;;;;;7.35;85.59;98418.34;104849;1256;61951;-63
2023/12/25 02:21:49;;;;;;;13.00;2.70;;;;;;;7.34;85.58;98419.23;104689;1256;138969;-63
2023/12/25 02:24:16;;;;;;;11.80;2.90;;;;;;;7.34;85.57;98419.39;104834;1256;74604;-63
2023/12/25 02:26:42;;;;;;;13.00;3.00;;;;;;;7.31;85.54;98423.73;105013;1261;65240;-61
2023/12/25 02:29:09;;;;;;;14.30;3.60;;;;;;;7.26;85.36;98433.33;104916;1256;139313;-63
2023/12/25 02:31:36;;;;;;;17.50;3.70;;;;;;;7.19;85.20;98431.57;104995;1256;61398;-63
2023/12/25 02:34:02;;;;;;;16.10;3.40;;;;;;;7.14;85.34;98437.48;104812;1256;139328;-63
2023/12/25 02:36:29;;;;;;;17.80;3.70;;;;;;;7.12;85.60;98434.52;104944;1256;74161;-63
2023/12/25 02:38:56;;;;;;;13.70;3.70;;;;;;;7.18;85.83;98435.41;105027;1256;65585;-62
2023/12/25 02:41:22;;;;;;;19.60;3.60;;;;;;;7.24;85.93;98441.18;104846;1256;138641;-63
2023/12/25 02:43:49;;;;;;;21.50;4.60;;;;;;;7.28;85.91;98441.71;104723;1256;61302;-63
2023/12/25 02:46:16;;;;;;;17.90;4.10;;;;;;;7.32;85.85;98439.96;104809;1257;138553;-64
2023/12/25 02:48:42;;;;;;;18.90;4.40;;;;;;;7.36;85.87;98441.36;104999;1256;74106;-64
2023/12/25 02:51:09;;;;;;;22.50;4.00;;;;;;;7.40;85.75;98442.59;105043;1258;65936;-64
2023/12/25 02:53:35;;;;;;;24.60;4.70;;;;;;;7.44;85.60;98452.36;104782;1258;138751;-63
2023/12/25 02:56:02;;;;;;;15.60;3.90;;;;;;;7.46;85.58;98456.90;104823;1262;61345;-62
2023/12/25 02:58:29;;;;;;;25.30;4.80;;;;;;;7.46;85.49;98457.09;104899;1256;138276;-62
2023/12/25 03:00:56;;;;;;;24.70;3.90;;;;;;;7.47;85.48;98458.30;104910;1256;61272;-62
2023/12/25 03:03:22;;;;;;;23.20;4.70;;;;;;;7.48;85.27;98459.35;104923;1259;65005;-63
2023/12/25 03:05:49;;;;;;;23.90;4.30;;;;;;;7.48;85.30;98459.35;107277;1256;138592;-63
2023/12/25 03:08:16;;;;;;;14.80;3.90;;;;;;;7.50;85.22;98461.08;105020;1256;61153;-63
2023/12/25 03:10:42;;;;;;;21.70;4.30;;;;;;;7.49;85.13;98464.75;104784;1256;138687;-68
2023/12/25 03:13:09;;;;;;;17.10;3.90;;;;;;;7.45;84.85;98467.89;104894;1259;73101;-68
2023/12/25 03:15:35;;;;;;;14.90;4.20;;;;;;;7.43;84.99;98478.02;104807;1256;139682;-68
2023/12/25 03:18:02;;;;;;;18.70;4.10;;;;;;;7.42;85.01;98475.73;104876;1256;72269;-68
2023/12/25 03:20:29;;;;;;;14.20;3.90;;;;;;;7.38;84.90;98478.70;109084;1256;59275;-67
2023/12/25 03:22:56;;;;;;;19.70;4.10;;;;;;;7.36;84.98;98474.34;109017;1254;138326;-67
2023/12/25 03:25:23;;;;;;;22.30;4.30;;;;;;;7.38;85.12;98483.59;106353;1256;74127;-67
2023/12/25 03:27:50;;;;;;;23.80;4.30;;;;;;;7.42;85.16;98484.29;105036;1256;66612;-69
2023/12/25 03:30:16;;;;;;;22.60;4.50;;;;;;;7.43;85.09;98483.58;104903;1258;73019;-68
2023/12/25 03:32:43;;;;;;;20.60;5.10;;;;;;;7.45;85.17;98488.14;104903;1256;60092;-68
2023/12/25 03:35:10;;;;;;;21.20;3.90;;;;;;;7.46;85.17;98484.65;104893;1256;138767;-68
2023/12/25 03:37:36;;;;;;;21.00;4.40;;;;;;;7.47;85.14;98487.62;105021;1258;74434;-69
2023/12/25 03:40:04;;;;;;;20.40;4.60;;;;;;;7.47;85.14;98493.19;104854;1258;139472;-68
2023/12/25 03:42:30;;;;;;;18.70;4.50;;;;;;;7.49;85.06;98490.23;105002;1256;74323;-69
2023/12/25 03:44:57;;;;;;;18.70;4.20;;;;;;;7.49;85.04;98492.85;104991;1259;61273;-69
2023/12/25 03:47:23;;;;;;;21.80;3.70;;;;;;;7.50;85.12;98491.98;104798;1256;139584;-69
2023/12/25 03:49:50;;;;;;;17.80;3.90;;;;;;;7.51;85.05;98484.48;104994;1258;74989;-69
2023/12/25 03:52:17;;;;;;;17.20;3.80;;;;;;;7.52;84.87;98485.35;104818;1261;138508;-69
2023/12/25 03:54:43;;;;;;;16.10;3.70;;;;;;;7.49;84.61;98480.46;105095;1256;73775;-68
2023/12/25 03:57:11;;;;;;;15.70;3.40;;;;;;;7.42;84.38;98475.39;104995;1256;61325;-67
2023/12/25 03:59:40;;;;;;;15.30;3.50;;;;;;;7.32;84.13;98469.98;104834;1256;138563;-68
2023/12/25 04:02:07;;;;;;;15.00;3.60;;;;;;;7.21;84.07;98474.14;105020;1256;75441;-68
2023/12/25 04:04:34;;;;;;;17.00;3.90;;;;;;;7.13;84.05;98473.25;104924;1256;138595;-69
2023/12/25 04:07:00;;;;;;;17.10;3.30;;;;;;;7.07;84.16;98473.23;104888;1256;72141;-67
2023/12/25 04:09:27;;;;;;;18.40;4.00;;;;;;;7.01;84.16;98469.21;104871;1258;61247;-63
2023/12/25 04:11:54;;;;;;;18.70;3.80;;;;;;;6.95;84.18;98482.63;104752;1259;138336;-64
2023/12/25 04:14:20;;;;;;;17.00;3.60;;;;;;;6.93;84.39;98484.02;105031;1261;75901;-63
2023/12/25 04:16:47;;;;;;;19.80;3.60;;;;;;;6.91;84.29;98484.35;104829;1259;138815;-63
2023/12/25 04:19:13;;;;;;;13.20;2.80;;;;;;;6.87;84.29;98480.16;104866;1260;73174;-64
2023/12/25 04:21:40;;;;;;;21.30;3.90;;;;;;;6.85;84.48;98477.02;104800;1258;138564;-64
2023/12/25 04:24:07;;;;;;;16.30;3.40;;;;;;;6.88;84.70;98473.37;104926;1258;61515;-63
2023/12/25 04:26:34;;;;;;;15.10;3.50;;;;;;;6.96;84.97;98482.96;109087;1256;75435;-63
2023/12/25 04:29:01;;;;;;;13.90;3.80;;;;;;;7.06;84.93;98474.63;108952;1255;139122;-63
2023/12/25 04:31:28;;;;;;;22.20;3.70;;;;;;;7.10;84.74;98473.06;108050;1258;72724;-64
2023/12/25 04:33:54;;;;;;;17.20;3.40;;;;;;;7.10;84.47;98474.30;104867;1257;139084;-63
2023/12/25 04:36:21;;;;;;;16.30;3.30;;;;;;;7.06;84.32;98480.05;104948;1259;61376;-63
2023/12/25 04:38:47;;;;;;;21.30;3.80;;;;;;;7.05;84.27;98478.64;104865;1257;74557;-68
2023/12/25 04:41:20;;;;;;;14.00;3.10;;;;;;;7.01;84.14;98481.77;104879;1256;138557;-69
2023/12/25 04:43:46;;;;;;;18.10;3.20;;;;;;;6.96;84.02;98490.30;104919;1256;72363;-68
2023/12/25 04:46:13;;;;;;;14.60;3.60;;;;;;;6.93;83.99;98486.10;104884;1258;139308;-69
2023/12/25 04:48:40;;;;;;;16.30;3.30;;;;;;;6.90;84.03;98473.38;104896;1262;61279;-70
2023/12/25 04:51:07;;;;;;;9.90;3.00;;;;;;;6.89;83.85;98474.06;105012;1256;80120;-68
2023/12/25 04:53:36;;;;;;;15.60;3.10;;;;;;;6.87;83.70;98488.70;104790;1259;138244;-63
2023/12/25 04:56:03;;;;;;;8.90;2.60;;;;;;;6.93;83.99;98491.86;108944;1255;73050;-63
2023/12/25 04:58:30;;;;;;;10.20;2.80;;;;;;;7.07;84.09;98486.48;108969;1256;138581;-62
2023/12/25 05:00:56;;;;;;;13.70;3.20;;;;;;;7.19;84.03;98497.52;106550;1258;61188;-63
2023/12/25 05:03:23;;;;;;;16.20;3.20;;;;;;;7.28;83.83;98488.63;105008;1259;74700;-61
2023/12/25 05:05:50;;;;;;;10.30;2.80;;;;;;;7.31;83.78;98487.24;104858;1255;138409;-62
2023/12/25 05:08:18;;;;;;;13.00;3.00;;;;;;;7.31;83.74;98496.48;104782;1262;73371;-63
2023/12/25 05:10:45;;;;;;;11.40;3.00;;;;;;;7.35;83.75;98488.81;108910;1256;138946;-63
2023/12/25 05:13:11;;;;;;;12.40;3.40;;;;;;;7.33;83.47;98480.63;109025;1256;59453;-63
2023/12/25 05:15:38;;;;;;;11.80;2.90;;;;;;;7.31;83.43;98474.15;108986;1256;139150;-63
2023/12/25 05:18:05;;;;;;;12.70;3.10;;;;;;;7.33;83.38;98469.64;109074;1256;66295;-63
2023/12/25 05:20:31;;;;;;;13.90;2.80;;;;;;;7.29;83.22;98464.91;109091;1255;73267;-63
2023/12/25 05:22:58;;;;;;;12.00;2.80;;;;;;;7.26;83.09;98473.98;108957;1258;138345;-69
2023/12/25 05:25:25;;;;;;;13.90;2.80;;;;;;;7.20;82.92;98475.54;109065;1256;60353;-69
2023/12/25 05:27:51;;;;;;;14.80;3.10;;;;;;;7.14;82.84;98471.68;108983;1255;139353;-69
2023/12/25 05:30:18;;;;;;;18.60;4.30;;;;;;;7.10;82.85;98468.88;109032;1256;67691;-69
2023/12/25 05:32:44;;;;;;;16.60;3.20;;;;;;;7.05;82.76;98457.36;109040;1255;72095;-69
2023/12/25 05:35:11;;;;;;;19.10;4.10;;;;;;;7.01;82.75;98462.23;108977;1255;138406;-68
2023/12/25 05:37:38;;;;;;;18.50;3.70;;;;;;;7.00;82.75;98471.11;109132;1255;61395;-69
2023/12/25 05:40:06;;;;;;;17.40;3.80;;;;;;;6.98;82.79;98472.86;108956;1256;138773;-63
2023/12/25 05:42:32;;;;;;;13.30;3.00;;;;;;;6.96;82.71;98480.01;108735;1256;65575;-63
2023/12/25 05:44:59;;;;;;;13.80;3.10;;;;;;;6.93;82.61;98485.92;104941;1256;72098;-62
2023/12/25 05:47:26;;;;;;;15.20;3.40;;;;;;;6.92;82.68;98483.48;104771;1261;138560;-63
2023/12/25 05:49:53;;;;;;;17.20;3.80;;;;;;;6.91;82.65;98484.36;104738;1256;61358;-63
2023/12/25 05:52:20;;;;;;;13.60;3.50;;;;;;;6.92;82.69;98485.93;108886;1256;138517;-63
2023/12/25 05:54:46;;;;;;;9.40;2.80;;;;;;;6.93;82.90;98488.02;107215;1255;65938;-62
2023/12/25 05:57:13;;;;;;;14.80;2.90;;;;;;;6.91;82.76;98485.41;105038;1258;72218;-63
2023/12/25 05:59:40;;;;;;;11.00;2.60;;;;;;;6.91;82.82;98469.02;104756;1256;139150;-63
2023/12/25 06:02:06;;;;;;;15.70;2.60;;;;;;;6.90;82.78;98474.23;104981;1254;61243;-64
2023/12/25 06:04:33;;;;;;;15.40;2.50;;;;;;;6.86;82.70;98474.92;104850;1256;138439;-63
2023/12/25 06:07:00;;;;;;;14.30;2.70;;;;;;;6.83;82.83;98467.41;105030;1256;63928;-68
2023/12/25 06:09:27;;;;;;;10.60;2.70;;;;;;;6.79;82.90;98466.54;105048;1258;73747;-68
2023/12/25 06:11:53;;;;;;;16.10;3.10;;;;;;;6.75;83.00;98476.45;104926;1256;138431;-63
2023/12/25 06:14:20;;;;;;;11.60;2.50;;;;;;;6.74;83.04;98466.52;104887;1259;61740;-64
2023/12/25 06:16:47;;;;;;;10.90;2.60;;;;;;;6.72;83.09;98466.50;104839;1256;138416;-63
2023/12/25 06:19:14;;;;;;;19.50;4.10;;;;;;;6.69;83.05;98461.44;104941;1256;64618;-63
2023/12/25 06:21:40;;;;;;;17.40;3.60;;;;;;;6.65;83.10;98457.94;104931;1256;138638;-63
2023/12/25 06:24:07;;;;;;;17.40;3.80;;;;;;;6.60;83.00;98461.77;104861;1256;61351;-63
2023/12/25 06:26:34;;;;;;;8.80;2.30;;;;;;;6.56;83.10;98463.66;104975;1258;61335;-63
2023/12/25 06:29:00;;;;;;;17.00;3.90;;;;;;;6.53;83.22;98462.77;104798;1259;139532;-63
2023/12/25 06:31:27;;;;;;;13.60;3.40;;;;;;;6.52;83.19;98461.91;104946;1259;65699;-63
2023/12/25 06:33:54;;;;;;;19.90;3.80;;;;;;;6.50;83.19;98468.52;104751;1256;139609;-68
2023/12/25 06:36:20;;;;;;;23.30;3.70;;;;;;;6.49;83.25;98474.09;104900;1262;64210;-69
2023/12/25 06:38:47;;;;;;;10.60;3.40;;;;;;;6.48;83.24;98481.23;104895;1256;61277;-67
2023/12/25 06:41:14;;;;;;;16.20;3.50;;;;;;;6.47;83.25;98479.48;104718;1260;139212;-68
2023/12/25 06:43:40;;;;;;;19.60;3.70;;;;;;;6.45;83.26;98485.02;104938;1259;64334;-68
2023/12/25 06:46:07;;;;;;;16.30;3.20;;;;;;;6.45;83.26;98480.86;104891;1257;138718;-68
2023/12/25 06:48:33;;;;;;;13.80;2.90;;;;;;;6.48;83.32;98480.52;104971;1256;61353;-68
2023/12/25 06:51:00;;;;;;;11.60;3.00;;;;;;;6.47;83.24;98486.79;104899;1260;61339;-68
2023/12/25 06:53:27;;;;;;;15.80;3.50;;;;;;;6.48;83.25;98492.38;104857;1259;138475;-69
2023/12/25 06:55:53;;;;;;;13.70;3.10;;;;;;;6.49;83.29;98486.27;105014;1258;65392;-69
2023/12/25 06:58:20;;;;;;;13.00;3.70;;;;;;;6.53;83.26;98481.42;104748;1262;138745;-68
2023/12/25 07:00:47;;;;;;;17.60;3.80;;;;;;;6.54;83.10;98485.44;104898;1259;61185;-69
2023/12/25 07:03:13;;;;;;;15.00;3.10;;;;;;;6.55;83.07;98491.88;104944;1262;61318;-69
2023/12/25 07:05:41;;;;;;;13.60;4.00;;;;;;;6.57;82.78;98496.95;105031;1264;138568;-68
2023/12/25 07:08:08;;;;;;;15.30;4.20;;;;;;;6.62;82.74;98513.35;109044;1255;66576;-67
2023/12/25 07:10:36;;;;;;;12.70;3.30;;;;;;;6.69;82.65;98508.50;108953;1256;138502;-67
2023/12/25 07:13:03;;;;;;;20.20;4.40;;;;;;;6.76;82.36;98505.05;109025;1256;59897;-69
2023/12/25 07:15:30;;;;;;;15.40;3.30;;;;;;;6.80;82.17;98509.42;109060;1256;59031;-68
2023/12/25 07:17:56;;;;;;;15.90;3.50;;;;;;;6.82;81.84;98509.77;107413;1256;75442;-68
2023/12/25 07:20:23;;;;;;;13.10;4.10;;;;;;;6.87;81.62;98512.77;104916;1256;65610;-68
2023/12/25 07:22:50;;;;;;;10.50;3.40;;;;;;;6.90;81.31;98513.64;104836;1259;138404;-69
2023/12/25 07:25:16;;;;;;;16.20;3.20;;;;;;;6.94;81.16;98518.36;104967;1258;61360;-68
2023/12/25 07:27:43;;;;;;;16.60;3.80;;;;;;;6.97;81.01;98515.41;104923;1257;138533;-67
2023/12/25 07:30:10;;;;;;;15.60;3.60;;;;;;;7.00;80.85;98522.40;104923;1262;75883;-68
2023/12/25 07:32:39;;;;;;;17.90;3.80;;;;;;;7.01;80.57;98525.37;109072;1257;67684;-68
2023/12/25 07:35:07;;;;;;;13.80;3.40;;;;;;;7.04;80.36;98520.14;108883;1255;138925;-68
2023/12/25 07:37:33;;;;;;;21.10;7.20;;;;;;;7.09;80.21;98524.86;109021;1256;59344;-68
2023/12/25 07:40:00;;;;;;;21.80;4.20;;;;;;;7.11;80.12;98519.64;108974;1254;138325;-68
2023/12/25 07:42:27;;;;;;;17.60;4.40;;;;;;;7.13;79.95;98523.14;109048;1258;75421;-68
2023/12/25 07:44:53;;;;;;;26.40;8.00;;;;;;;7.11;79.80;98520.33;106509;1259;67409;-68
2023/12/25 07:47:20;;;;;;;15.00;5.30;;;;;;;7.09;79.69;98524.34;104694;1256;138375;-68
2023/12/25 07:49:47;;;;;;;17.10;4.50;;;;;;;7.08;79.52;98538.46;104817;1256;61781;-68
2023/12/25 07:52:13;;;;;;;13.10;3.80;;;;;;;7.07;79.37;98546.31;104779;1256;138612;-69
2023/12/25 07:54:40;;;;;;;17.80;3.80;;;;;;;7.08;79.22;98545.10;104978;1258;73891;-69
2023/12/25 07:57:07;;;;;;;20.20;6.00;;;;;;;7.13;79.15;98548.95;104905;1260;65600;-68
2023/12/25 07:59:33;;;;;;;18.30;4.30;;;;;;;7.15;78.95;98544.25;104937;1256;137850;-67
2023/12/25 08:02:00;;;;;;;19.70;5.30;;;;;;;7.18;78.58;98549.66;105116;1259;61171;-67
2023/12/25 08:04:27;;;;;;;24.50;4.30;;;;;;;7.18;78.48;98562.56;104916;1261;139563;-68
2023/12/25 08:06:54;;;;;;;25.10;7.10;;;;;;;7.18;78.31;98560.48;104947;1257;74508;-68
2023/12/25 08:09:20;;;;;;;23.40;5.50;;;;;;;7.18;78.19;98553.85;104988;1256;68336;-68
2023/12/25 08:11:47;;;;;;;20.80;5.30;;;;;;;7.17;78.07;98559.23;104813;1268;138317;-68
2023/12/25 08:14:14;;;;;;;20.20;5.70;;;;;;;7.14;77.93;98558.55;105092;1259;61303;-68
2023/12/25 08:16:41;;;;;;;27.60;6.40;;;;;;;7.13;77.61;98561.33;104928;1259;138579;-69
2023/12/25 08:19:08;;;;;;;22.50;5.70;;;;;;;7.14;77.65;98556.80;105125;1259;73823;-64
2023/12/25 08:21:34;;;;;;;25.00;4.80;;;;;;;7.13;77.67;98557.67;104802;1260;137832;-64
2023/12/25 08:24:01;;;;;;;26.90;6.30;;;;;;;7.12;77.39;98550.33;104918;1260;73214;-68
2023/12/25 08:26:28;;;;;;;26.70;7.10;;;;;;;7.12;77.40;98565.52;109016;1259;59290;-67
2023/12/25 08:28:54;;;;;;;27.30;7.90;;;;;;;7.14;77.28;98564.83;108885;1255;138421;-68
2023/12/25 08:31:21;;;;;;;35.20;10.50;;;;;;;7.17;77.27;98564.13;109144;1256;74742;-64
2023/12/25 08:33:48;;;;;;;25.80;7.40;;;;;;;7.17;77.40;98566.75;108895;1255;139947;-63
2023/12/25 08:36:15;;;;;;;28.00;7.10;;;;;;;7.19;77.28;98586.29;109019;1257;73361;-69
2023/12/25 08:38:41;;;;;;;29.70;6.50;;;;;;;7.21;77.25;98595.02;108929;1257;60327;-69
2023/12/25 08:41:08;;;;;;;20.80;5.30;;;;;;;7.25;77.01;98593.13;109013;1256;138613;-64
2023/12/25 08:43:35;;;;;;;30.90;7.50;;;;;;;7.30;76.90;98596.98;109068;1258;72862;-69
2023/12/25 08:46:01;;;;;;;18.80;5.60;;;;;;;7.32;76.83;98597.86;109027;1256;138311;-69
2023/12/25 08:48:28;;;;;;;26.40;6.60;;;;;;;7.34;76.72;98598.73;106480;1260;72792;-67
2023/12/25 08:50:54;;;;;;;18.60;5.50;;;;;;;7.37;76.75;98602.40;104903;1256;61361;-68
2023/12/25 08:53:21;;;;;;;22.00;5.90;;;;;;;7.38;76.66;98597.17;104746;1261;138123;-70
2023/12/25 08:55:48;;;;;;;21.40;4.90;;;;;;;7.40;76.51;98597.53;105025;1260;75921;-67
2023/12/25 08:58:15;;;;;;;19.70;5.00;;;;;;;7.44;76.61;98605.23;104897;1258;139498;-63
2023/12/25 09:00:41;;;;;;;25.10;5.20;;;;;;;7.46;76.40;98607.50;104898;1260;72689;-63
2023/12/25 09:03:08;;;;;;;26.00;5.90;;;;;;;7.52;76.50;98609.27;104982;1261;61368;-65
2023/12/25 09:05:35;;;;;;;25.10;5.50;;;;;;;7.57;76.33;98611.36;104952;1263;138405;-64
2023/12/25 09:08:02;;;;;;;40.20;7.90;;;;;;;7.58;76.24;98614.34;104940;1258;75138;-63
2023/12/25 09:10:29;;;;;;;25.90;6.20;;;;;;;7.56;76.15;98610.14;104864;1257;138050;-65
2023/12/25 09:12:56;;;;;;;19.70;5.60;;;;;;;7.54;76.09;98616.93;105046;1259;72687;-63
2023/12/25 09:15:22;;;;;;;22.00;5.60;;;;;;;7.52;76.06;98621.99;104941;1260;61365;-68
2023/12/25 09:17:50;;;;;;;22.20;4.90;;;;;;;7.50;75.87;98614.32;104697;1261;138867;-69
2023/12/25 09:20:16;;;;;;;16.40;4.90;;;;;;;7.52;75.88;98620.59;104826;1257;75175;-67
2023/12/25 09:22:44;;;;;;;20.20;4.90;;;;;;;7.53;75.84;98619.21;104882;1259;138391;-68
2023/12/25 09:25:11;;;;;;;21.80;4.90;;;;;;;7.55;75.72;98622.36;104925;1259;74353;-67
2023/12/25 09:27:37;;;;;;;22.00;4.90;;;;;;;7.63;75.63;98630.94;104963;1267;138070;-69
2023/12/25 09:30:05;;;;;;;20.20;4.70;;;;;;;7.77;75.71;98629.22;104999;1260;60381;-69
2023/12/25 09:32:32;;;;;;;21.90;6.30;;;;;;;7.88;75.56;98630.81;104872;1262;73734;-68
2023/12/25 09:34:59;;;;;;;17.80;4.80;;;;;;;7.97;75.46;98631.01;104891;1261;138186;-69
2023/12/25 09:37:25;;;;;;;24.40;4.70;;;;;;;8.06;75.29;98635.20;104901;1256;72844;-67
2023/12/25 09:39:52;;;;;;;22.40;4.90;;;;;;;8.16;74.84;98647.80;104857;1260;138031;-68
2023/12/25 09:42:19;;;;;;;14.40;4.30;;;;;;;8.25;74.46;98651.30;104955;1261;61357;-68
2023/12/25 09:44:46;;;;;;;16.70;4.10;;;;;;;8.32;73.95;98645.01;104980;1259;74754;-68
2023/12/25 09:47:12;;;;;;;20.50;4.70;;;;;;;8.34;73.41;98645.88;104724;1262;138793;-68
2023/12/25 09:49:39;;;;;;;19.40;4.10;;;;;;;8.25;72.97;98639.92;104955;1257;70938;-68
2023/12/25 09:52:06;;;;;;;18.90;4.20;;;;;;;8.14;72.68;98640.63;104569;1260;137952;-69
2023/12/25 09:54:33;;;;;;;15.50;4.60;;;;;;;8.09;72.62;98645.68;105164;1257;61345;-69
2023/12/25 09:57:00;;;;;;;20.20;4.70;;;;;;;8.07;72.58;98630.84;105142;1264;74936;-68
2023/12/25 09:59:27;;;;;;;14.80;4.40;;;;;;;7.99;72.21;98629.27;104810;1260;137439;-68
2023/12/25 10:01:55;;;;;;;18.20;4.30;;;;;;;7.89;71.65;98644.25;104839;1256;73378;-64
2023/12/25 10:04:22;;;;;;;22.40;6.90;;;;;;;7.80;71.80;98651.75;104910;1257;137578;-63
2023/12/25 10:06:48;;;;;;;17.70;4.60;;;;;;;7.73;72.05;98653.83;104768;1261;61264;-69
2023/12/25 10:09:16;;;;;;;16.70;4.40;;;;;;;7.66;72.05;98657.81;105046;1256;75257;-64
2023/12/25 10:11:42;;;;;;;21.30;6.10;;;;;;;7.61;72.20;98672.12;104914;1261;137914;-63
2023/12/25 10:14:09;;;;;;;15.40;3.60;;;;;;;7.66;72.66;98662.88;105086;1260;73844;-67
2023/12/25 10:16:36;;;;;;;15.90;3.80;;;;;;;7.85;72.60;98672.71;105047;1257;138110;-68
2023/12/25 10:19:03;;;;;;;15.50;3.60;;;;;;;7.99;72.87;98671.52;105142;1257;61244;-68
2023/12/25 10:21:43;;;;;;;14.60;3.40;;;;;;;7.97;72.53;98672.39;104949;1268;73950;-69
2023/12/25 10:24:14;;;;;;;13.80;3.40;;;;;;;7.79;72.25;98669.90;105182;1260;65705;-69
2023/12/25 10:26:45;;;;;;;15.90;4.70;;;;;;;7.61;72.37;98670.02;109063;1256;71698;-67
2023/12/25 10:29:13;;;;;;;17.60;4.20;;;;;;;7.50;72.59;98675.05;108944;1256;138819;-68
2023/12/25 10:31:43;;;;;;;20.20;4.50;;;;;;;7.42;72.55;98671.88;109122;1256;60232;-63
2023/12/25 10:34:10;;;;;;;19.10;4.60;;;;;;;7.38;72.51;98665.22;106922;1260;138002;-70
2023/12/25 10:36:37;;;;;;;16.90;4.40;;;;;;;7.39;72.47;98664.17;104953;1256;65089;-68
2023/12/25 10:39:04;;;;;;;16.80;5.30;;;;;;;7.42;72.38;98654.42;107748;1260;73299;-63
2023/12/25 10:41:33;;;;;;;17.40;4.20;;;;;;;7.44;72.32;98660.90;104651;1259;269712;-69
2023/12/25 10:44:02;;;;;;;17.90;4.30;;;;;;;7.48;71.98;98662.64;109049;1258;61537;-68
2023/12/25 10:46:37;;;;;;;15.80;5.30;;;;;;;7.52;71.84;98665.11;105646;1259;137554;-68
2023/12/25 10:49:05;;;;;;;18.40;5.30;;;;;;;7.57;71.37;98666.70;109108;1257;66089;-68
2023/12/25 10:51:43;;;;;;;21.30;4.90;;;;;;;7.62;70.96;98669.50;109092;1258;71438;-68
2023/12/25 10:54:10;;;;;;;16.10;4.00;;;;;;;7.66;70.65;98669.17;109063;1256;59065;-68
2023/12/25 10:56:43;;;;;;;21.40;5.70;;;;;;;7.69;70.31;98665.35;109083;1258;59160;-68
2023/12/25 10:59:16;;;;;;;17.00;4.60;;;;;;;7.73;70.27;98687.34;108592;1257;137393;-68
2023/12/25 11:01:44;;;;;;;22.90;5.30;;;;;;;7.78;70.36;98683.16;109042;1257;66584;-68
2023/12/25 11:04:15;;;;;;;20.10;6.00;;;;;;;7.86;70.25;98676.04;108946;1256;138137;-69
2023/12/25 11:06:46;;;;;;;21.10;5.80;;;;;;;7.88;70.14;98678.65;109016;1257;58939;-69
2023/12/25 11:09:14;;;;;;;15.00;5.20;;;;;;;7.86;70.06;98677.42;109072;1257;58956;-69
2023/12/25 11:11:41;;;;;;;15.90;4.50;;;;;;;7.82;69.58;98679.70;108992;1255;137479;-69
2023/12/25 11:14:08;;;;;;;12.80;4.00;;;;;;;7.83;69.86;98684.58;105906;1259;66437;-69
2023/12/25 11:16:35;;;;;;;24.30;5.20;;;;;;;7.92;69.91;98689.49;104669;1261;138638;-68
2023/12/25 11:19:02;;;;;;;22.70;5.90;;;;;;;8.06;70.03;98692.50;104910;1259;61301;-69
2023/12/25 11:21:30;;;;;;;22.50;6.00;;;;;;;8.18;69.76;98687.80;104865;1269;61202;-70
2023/12/25 11:23:59;;;;;;;14.90;4.50;;;;;;;8.22;69.17;98702.66;108926;1256;137606;-67